createdAt,value
2018-02-12T00:02:01.313Z,70.36
2018-02-12T00:04:32.369Z,70.71
2018-02-12T00:07:03.411Z,70.83
2018-02-12T00:09:34.478Z,70.92
2018-02-12T00:12:05.539Z,71.36
2018-02-12T00:14:36.841Z,71.22
2018-02-12T00:17:07.879Z,71.26
2018-02-12T00:19:38.991Z,71.21
2018-02-12T00:22:12.897Z,71.17
2018-02-12T00:24:43.963Z,71.25
2018-02-12T00:27:15.041Z,71.29
2018-02-12T00:29:46.115Z,71.34
2018-02-12T00:32:17.199Z,71.20
2018-02-12T00:34:48.284Z,71.04
2018-02-12T00:37:19.321Z,70.73
2018-02-12T00:39:50.405Z,70.77
2018-02-12T00:42:21.487Z,71.13
2018-02-12T00:44:52.534Z,71.23
2018-02-12T00:47:23.597Z,71.33
2018-02-12T00:49:54.678Z,71.60
2018-02-12T00:52:25.733Z,72.06
2018-02-12T00:54:56.880Z,72.45
2018-02-12T00:57:27.987Z,72.80
2018-02-12T00:59:59.050Z,73.14
2018-02-12T01:02:37.158Z,73.21
2018-02-12T01:05:08.206Z,73.54
2018-02-12T01:07:39.292Z,73.61
2018-02-12T01:10:10.374Z,73.66
2018-02-12T01:12:41.430Z,73.45
2018-02-12T01:15:12.550Z,73.04
2018-02-12T01:17:43.661Z,72.46
2018-02-12T01:20:14.755Z,72.50
2018-02-12T01:22:45.821Z,72.40
2018-02-12T01:25:16.872Z,72.29
2018-02-12T01:27:47.966Z,72.07
2018-02-12T01:30:19.076Z,71.93
2018-02-12T01:32:50.147Z,71.93
2018-02-12T01:35:21.191Z,71.90
2018-02-12T01:37:52.245Z,72.11
2018-02-12T01:40:23.322Z,72.06
2018-02-12T01:42:54.368Z,72.32
2018-02-12T01:45:25.430Z,72.47
2018-02-12T01:47:56.483Z,72.43
2018-02-12T01:50:27.591Z,72.46
2018-02-12T01:52:58.645Z,72.36
2018-02-12T01:55:29.711Z,72.07
2018-02-12T01:58:00.786Z,72.18
2018-02-12T02:00:31.856Z,72.52
2018-02-12T02:03:02.951Z,72.37
2018-02-12T02:05:33.995Z,72.36
2018-02-12T02:08:05.057Z,72.70
2018-02-12T02:10:36.123Z,72.77
2018-02-12T02:13:07.207Z,72.83
2018-02-12T02:15:38.251Z,72.84
2018-02-12T02:18:09.395Z,73.04
2018-02-12T02:20:40.463Z,72.90
2018-02-12T02:23:11.500Z,72.91
2018-02-12T02:25:42.588Z,72.99
2018-02-12T02:28:13.629Z,73.14
2018-02-12T02:30:44.681Z,73.12
2018-02-12T02:33:15.747Z,73.13
2018-02-12T02:35:48.698Z,73.27
2018-02-12T02:38:19.747Z,73.50
2018-02-12T02:40:50.863Z,73.40
2018-02-12T02:43:21.910Z,73.07
2018-02-12T02:45:52.980Z,72.57
2018-02-12T02:48:24.033Z,71.94
2018-02-12T02:50:55.142Z,71.29
2018-02-12T02:53:26.222Z,70.67
2018-02-12T02:55:57.340Z,70.37
2018-02-12T02:58:28.415Z,70.02
2018-02-12T03:00:59.502Z,69.70
2018-02-12T03:03:30.581Z,69.38
2018-02-12T03:06:01.629Z,69.19
2018-02-12T03:08:32.731Z,69.00
2018-02-12T03:11:03.813Z,68.59
2018-02-12T03:13:34.930Z,67.96
2018-02-12T03:16:06.013Z,67.32
2018-02-12T03:18:37.053Z,67.20
2018-02-12T03:21:08.150Z,67.19
2018-02-12T03:23:39.187Z,67.02
2018-02-12T03:26:10.243Z,66.78
2018-02-12T03:28:41.288Z,66.62
2018-02-12T03:31:12.378Z,66.43
2018-02-12T03:33:43.455Z,66.65
2018-02-12T03:36:14.545Z,66.63
2018-02-12T03:38:45.642Z,66.81
2018-02-12T03:41:16.651Z,67.50
2018-02-12T03:43:47.727Z,68.03
2018-02-12T03:46:18.835Z,68.22
2018-02-12T03:48:49.939Z,68.23
2018-02-12T03:51:20.983Z,68.38
2018-02-12T03:53:52.071Z,68.62
2018-02-12T03:56:23.142Z,68.57
2018-02-12T03:58:54.238Z,68.58
2018-02-12T04:01:25.356Z,68.50
2018-02-12T04:03:56.424Z,68.45
2018-02-12T04:06:27.483Z,68.34
2018-02-12T04:08:58.548Z,68.40
2018-02-12T04:11:29.597Z,68.37
2018-02-12T04:14:00.789Z,68.21
2018-02-12T04:16:32.122Z,68.20
2018-02-12T04:19:03.281Z,68.19
2018-02-12T04:21:41.493Z,68.18
2018-02-12T04:24:12.706Z,68.11
2018-02-12T04:26:43.774Z,67.98
2018-02-12T04:29:14.992Z,67.77
2018-02-12T04:31:46.045Z,67.56
2018-02-12T04:34:17.122Z,67.55
2018-02-12T04:36:48.203Z,67.73
2018-02-12T04:39:19.252Z,67.80
2018-02-12T04:41:50.341Z,67.82
2018-02-12T04:44:21.439Z,68.02
2018-02-12T04:46:52.561Z,68.17
2018-02-12T04:49:23.613Z,68.17
2018-02-12T04:51:54.733Z,67.90
2018-02-12T04:54:25.758Z,67.37
2018-02-12T04:56:56.871Z,67.44
2018-02-12T04:59:27.990Z,67.23
2018-02-12T05:01:59.076Z,67.67
2018-02-12T05:04:30.179Z,67.83
2018-02-12T05:07:01.279Z,67.81
2018-02-12T05:09:32.398Z,67.73
2018-02-12T05:12:03.470Z,67.57
2018-02-12T05:14:34.663Z,67.20
2018-02-12T05:17:05.751Z,66.77
2018-02-12T05:19:36.932Z,66.37
2018-02-12T05:22:08.291Z,66.50
2018-02-12T05:24:39.400Z,66.73
2018-02-12T05:27:10.457Z,66.81
2018-02-12T05:29:41.590Z,66.66
2018-02-12T05:32:12.666Z,66.63
2018-02-12T05:34:43.753Z,66.46
2018-02-12T05:37:14.811Z,65.97
2018-02-12T05:39:45.874Z,65.14
2018-02-12T05:42:17.033Z,64.34
2018-02-12T05:44:48.123Z,64.34
2018-02-12T05:47:19.239Z,64.48
2018-02-12T05:49:50.293Z,65.52
2018-02-12T05:52:21.401Z,66.65
2018-02-12T05:54:52.509Z,67.37
2018-02-12T05:57:23.580Z,68.06
2018-02-12T05:59:54.707Z,68.18
2018-02-12T06:02:25.783Z,68.45
2018-02-12T06:04:56.877Z,68.63
2018-02-12T06:07:28.139Z,68.90
2018-02-12T06:09:59.214Z,68.94
2018-02-12T06:12:30.334Z,69.11
2018-02-12T06:15:01.388Z,69.07
2018-02-12T06:17:32.496Z,69.04
2018-02-12T06:20:03.699Z,68.88
2018-02-12T06:22:34.842Z,68.87
2018-02-12T06:25:05.911Z,69.05
2018-02-12T06:27:36.998Z,68.79
2018-02-12T06:30:08.088Z,68.67
2018-02-12T06:32:39.206Z,68.62
2018-02-12T06:35:10.274Z,68.78
2018-02-12T06:37:42.128Z,68.88
2018-02-12T06:40:13.237Z,69.01
2018-02-12T06:42:44.337Z,68.93
2018-02-12T06:45:15.407Z,68.85
2018-02-12T06:47:46.420Z,68.59
2018-02-12T06:50:17.561Z,68.30
2018-02-12T06:52:48.581Z,68.12
2018-02-12T06:55:19.704Z,67.93
2018-02-12T06:57:50.772Z,67.78
2018-02-12T07:00:21.838Z,67.71
2018-02-12T07:02:52.950Z,67.70
2018-02-12T07:05:24.009Z,67.48
2018-02-12T07:07:55.139Z,67.27
2018-02-12T07:10:26.227Z,66.91
2018-02-12T07:12:57.335Z,66.23
2018-02-12T07:15:28.446Z,65.42
2018-02-12T07:17:59.500Z,64.66
2018-02-12T07:20:30.678Z,64.02
2018-02-12T07:23:01.749Z,63.79
2018-02-12T07:25:32.894Z,63.39
2018-02-12T07:28:03.975Z,62.37
2018-02-12T07:30:35.061Z,61.26
2018-02-12T07:33:06.166Z,60.06
2018-02-12T07:35:37.271Z,59.64
2018-02-12T07:38:08.364Z,59.20
2018-02-12T07:40:39.409Z,58.84
2018-02-12T07:43:10.510Z,58.38
2018-02-12T07:45:41.539Z,58.63
2018-02-12T07:48:12.649Z,58.73
2018-02-12T07:50:43.725Z,58.84
2018-02-12T07:53:14.828Z,58.79
2018-02-12T07:55:45.845Z,58.37
2018-02-12T07:58:17.047Z,58.18
2018-02-12T08:00:48.091Z,58.23
2018-02-12T08:03:19.214Z,58.50
2018-02-12T08:05:50.283Z,58.67
2018-02-12T08:08:21.388Z,58.77
2018-02-12T08:10:52.432Z,58.63
2018-02-12T08:13:23.500Z,58.63
2018-02-12T08:15:54.634Z,58.12
2018-02-12T08:18:25.792Z,57.87
2018-02-12T08:20:56.866Z,57.40
2018-02-12T08:23:27.970Z,57.50
2018-02-12T08:25:59.140Z,57.63
2018-02-12T08:28:30.303Z,57.62
2018-02-12T08:31:01.394Z,57.63
2018-02-12T08:33:32.462Z,56.17
2018-02-12T08:36:03.527Z,53.04
2018-02-12T08:38:34.596Z,51.22
2018-02-12T08:41:05.714Z,50.61
2018-02-12T08:43:36.816Z,51.05
2018-02-12T08:46:08.146Z,50.14
2018-02-12T08:48:39.176Z,50.01
2018-02-12T08:51:10.267Z,44.69
2018-02-12T08:53:41.357Z,40.22
2018-02-12T08:56:12.509Z,34.56
2018-02-12T08:58:43.608Z,33.83
2018-02-12T09:01:14.709Z,35.10
2018-02-12T09:03:45.748Z,37.02
2018-02-12T09:06:16.868Z,38.67
2018-02-12T09:08:47.922Z,40.99
2018-02-12T09:11:19.022Z,42.34
2018-02-12T09:13:50.083Z,43.69
2018-02-12T09:16:21.219Z,45.04
2018-02-12T09:18:52.245Z,45.48
2018-02-12T09:21:23.348Z,42.83
2018-02-12T09:23:54.439Z,42.01
2018-02-12T09:26:25.486Z,36.54
2018-02-12T09:28:56.556Z,31.08
2018-02-12T09:31:27.574Z,26.97
2018-02-12T09:33:58.811Z,24.92
2018-02-12T09:36:29.866Z,24.44
2018-02-12T09:39:01.035Z,23.35
2018-02-12T09:41:32.074Z,23.92
2018-02-12T09:44:03.157Z,26.20
2018-02-12T09:46:34.251Z,28.13
2018-02-12T09:49:05.338Z,31.04
2018-02-12T09:51:36.580Z,32.28
2018-02-12T09:54:07.655Z,32.45
2018-02-12T09:56:38.807Z,31.38
2018-02-12T09:59:09.872Z,31.62
2018-02-12T10:01:40.943Z,33.23
2018-02-12T10:04:12.014Z,34.66
2018-02-12T10:06:43.144Z,34.50
2018-02-12T10:09:14.219Z,34.92
2018-02-12T10:11:45.297Z,35.93
2018-02-12T10:14:16.332Z,33.77
2018-02-12T10:16:48.372Z,30.14
2018-02-12T10:19:19.436Z,30.42
2018-02-12T10:21:50.533Z,32.12
2018-02-12T10:24:21.658Z,33.56
2018-02-12T10:26:52.787Z,34.44
2018-02-12T10:29:23.886Z,34.70
2018-02-12T10:31:55.039Z,33.46
2018-02-12T10:34:26.070Z,32.19
2018-02-12T10:36:57.177Z,31.99
2018-02-12T10:39:28.275Z,31.06
2018-02-12T10:41:59.399Z,29.62
2018-02-12T10:44:30.458Z,31.41
2018-02-12T10:47:01.736Z,30.20
2018-02-12T10:49:32.758Z,27.70
2018-02-12T10:52:06.075Z,25.92
2018-02-12T10:54:37.223Z,24.08
2018-02-12T10:57:08.244Z,23.63
2018-02-12T10:59:39.340Z,25.06
2018-02-12T11:02:10.379Z,28.97
2018-02-12T11:04:41.489Z,33.97
2018-02-12T11:07:12.618Z,37.53
2018-02-12T11:09:43.694Z,38.82
2018-02-12T11:12:14.810Z,40.05
2018-02-12T11:14:45.859Z,38.37
2018-02-12T11:17:17.038Z,35.37
2018-02-12T11:19:48.109Z,34.38
2018-02-12T11:22:19.279Z,35.00
2018-02-12T11:24:50.375Z,36.44
2018-02-12T11:27:21.527Z,37.98
2018-02-12T11:29:52.650Z,38.86
2018-02-12T11:32:23.743Z,40.03
2018-02-12T11:34:54.887Z,39.86
2018-02-12T11:37:25.936Z,39.91
2018-02-12T11:39:57.058Z,40.78
2018-02-12T11:42:28.132Z,40.99
2018-02-12T11:44:59.282Z,40.65
2018-02-12T11:47:30.349Z,39.09
2018-02-12T11:50:01.456Z,38.53
2018-02-12T11:52:32.493Z,38.54
2018-02-12T11:55:03.588Z,39.42
2018-02-12T11:57:34.640Z,41.58
2018-02-12T12:00:05.802Z,42.53
2018-02-12T12:02:36.884Z,44.38
2018-02-12T12:05:07.994Z,44.21
2018-02-12T12:07:39.027Z,44.21
2018-02-12T12:10:10.142Z,44.41
2018-02-12T12:12:41.238Z,44.25
2018-02-12T12:15:12.332Z,44.89
2018-02-12T12:17:43.360Z,45.04
2018-02-12T12:20:14.481Z,44.16
2018-02-12T12:22:45.530Z,43.28
2018-02-12T12:25:16.684Z,42.68
2018-02-12T12:27:47.848Z,43.03
2018-02-12T12:30:18.996Z,42.96
2018-02-12T12:32:50.114Z,42.49
2018-02-12T12:35:21.209Z,40.44
2018-02-12T12:37:52.267Z,39.38
2018-02-12T12:40:23.443Z,38.78
2018-02-12T12:42:56.297Z,38.69
2018-02-12T12:45:27.427Z,39.60
2018-02-12T12:47:58.461Z,40.33
2018-02-12T12:50:29.603Z,41.43
2018-02-12T12:53:00.704Z,41.53
2018-02-12T12:55:31.875Z,42.28
2018-02-12T12:58:02.934Z,42.06
2018-02-12T13:00:34.046Z,43.72
2018-02-12T13:03:05.089Z,50.16
2018-02-12T13:05:36.171Z,52.37
2018-02-12T13:08:07.262Z,53.64
2018-02-12T13:10:38.351Z,53.67
2018-02-12T13:13:09.484Z,53.95
2018-02-12T13:15:40.547Z,54.10
2018-02-12T13:18:11.659Z,55.08
2018-02-12T13:20:42.691Z,56.45
2018-02-12T13:23:13.790Z,55.82
2018-02-12T13:25:44.861Z,55.46
2018-02-12T13:28:15.974Z,54.25
2018-02-12T13:30:47.067Z,54.68
2018-02-12T13:33:18.266Z,54.37
2018-02-12T13:35:49.339Z,53.91
2018-02-12T13:38:20.411Z,53.04
2018-02-12T13:40:51.479Z,52.03
2018-02-12T13:43:23.695Z,53.38
2018-02-12T13:45:54.754Z,54.43
2018-02-12T13:48:25.838Z,55.94
2018-02-12T13:50:56.888Z,57.03
2018-02-12T13:53:28.027Z,57.12
2018-02-12T13:55:59.169Z,57.26
2018-02-12T13:58:30.237Z,57.32
2018-02-12T14:01:01.315Z,55.84
2018-02-12T14:03:32.384Z,55.82
2018-02-12T14:06:03.479Z,55.92
2018-02-12T14:08:34.692Z,56.47
2018-02-12T14:11:05.734Z,56.37
2018-02-12T14:13:36.820Z,56.80
2018-02-12T14:16:07.883Z,57.44
2018-02-12T14:18:39.131Z,57.72
2018-02-12T14:21:10.186Z,58.52
2018-02-12T14:23:41.297Z,58.01
2018-02-12T14:26:12.348Z,57.70
2018-02-12T14:28:43.470Z,57.27
2018-02-12T14:31:14.515Z,57.70
2018-02-12T14:33:45.644Z,58.26
2018-02-12T14:36:16.694Z,58.85
2018-02-12T14:38:47.802Z,59.72
2018-02-12T14:41:19.191Z,59.39
2018-02-12T14:43:50.338Z,60.19
2018-02-12T14:46:21.411Z,60.01
2018-02-12T14:48:52.559Z,58.79
2018-02-12T14:51:23.628Z,59.63
2018-02-12T14:53:54.743Z,59.59
2018-02-12T14:56:25.805Z,60.19
2018-02-12T14:58:56.930Z,59.13
2018-02-12T15:01:27.993Z,58.97
2018-02-12T15:03:59.119Z,59.09
2018-02-12T15:06:30.186Z,59.61
2018-02-12T15:09:01.340Z,59.96
2018-02-12T15:11:32.382Z,59.48
2018-02-12T15:14:03.501Z,59.37
2018-02-12T15:16:34.645Z,59.86
2018-02-12T15:19:05.678Z,60.15
2018-02-12T15:21:36.784Z,60.18
2018-02-12T15:24:07.873Z,60.15
2018-02-12T15:26:38.986Z,60.16
2018-02-12T15:29:10.089Z,60.60
2018-02-12T15:31:41.221Z,60.24
2018-02-12T15:34:12.291Z,59.97
2018-02-12T15:36:43.376Z,58.78
2018-02-12T15:39:14.456Z,58.65
2018-02-12T15:41:45.526Z,57.33
2018-02-12T15:44:16.608Z,57.08
2018-02-12T15:46:47.677Z,57.11
2018-02-12T15:49:18.811Z,56.83
2018-02-12T15:51:49.872Z,56.98
2018-02-12T15:54:20.987Z,57.07
2018-02-12T15:56:52.089Z,56.82
2018-02-12T15:59:23.199Z,56.85
2018-02-12T16:01:54.356Z,56.66
2018-02-12T16:04:25.416Z,56.60
2018-02-12T16:06:56.530Z,56.80
2018-02-12T16:09:27.558Z,56.91
2018-02-12T16:11:58.655Z,57.39
2018-02-12T16:14:29.738Z,57.40
2018-02-12T16:17:00.773Z,57.30
2018-02-12T16:19:38.777Z,57.60
2018-02-12T16:22:09.912Z,57.55
2018-02-12T16:24:41.460Z,57.57
2018-02-12T16:27:12.538Z,57.36
2018-02-12T16:29:44.614Z,57.76
2018-02-12T16:32:15.913Z,57.85
2018-02-12T16:34:46.959Z,58.57
2018-02-12T16:37:18.363Z,58.95
2018-02-12T16:39:50.681Z,59.53
2018-02-12T16:42:21.846Z,60.04
2018-02-12T16:44:53.247Z,60.43
2018-02-12T16:47:24.474Z,61.00
2018-02-12T16:49:55.502Z,61.06
2018-02-12T16:52:26.613Z,61.39
2018-02-12T16:54:57.678Z,62.22
2018-02-12T16:57:28.907Z,62.24
2018-02-12T16:59:59.978Z,62.75
2018-02-12T17:02:31.129Z,62.60
2018-02-12T17:05:02.334Z,62.64
2018-02-12T17:07:33.623Z,62.90
2018-02-12T17:10:04.856Z,63.31
2018-02-12T17:12:36.983Z,63.25
2018-02-12T17:15:08.188Z,63.39
2018-02-12T17:17:39.298Z,63.75
2018-02-12T17:20:10.376Z,63.38
2018-02-12T17:22:41.539Z,63.63
2018-02-12T17:25:12.684Z,63.52
2018-02-12T17:27:43.779Z,63.70
2018-02-12T17:30:14.841Z,64.06
2018-02-12T17:32:45.950Z,63.65
2018-02-12T17:35:17.004Z,63.82
2018-02-12T17:37:48.114Z,63.69
2018-02-12T17:40:19.219Z,63.75
2018-02-12T17:42:50.340Z,63.81
2018-02-12T17:45:21.515Z,64.05
2018-02-12T17:47:52.563Z,63.79
2018-02-12T17:50:23.721Z,64.02
2018-02-12T17:52:54.819Z,63.55
2018-02-12T17:55:25.899Z,63.48
2018-02-12T17:57:57.797Z,63.67
2018-02-12T18:00:28.931Z,64.19
2018-02-12T18:03:00.034Z,65.28
2018-02-12T18:05:31.115Z,64.09
2018-02-12T18:08:02.312Z,64.30
2018-02-12T18:10:34.276Z,64.07
2018-02-12T18:13:05.376Z,64.35
2018-02-12T18:15:36.528Z,64.30
2018-02-12T18:18:07.603Z,64.15
2018-02-12T18:20:38.763Z,64.80
2018-02-12T18:23:09.855Z,64.87
2018-02-12T18:25:40.952Z,65.18
2018-02-12T18:28:12.038Z,65.46
2018-02-12T18:30:43.145Z,65.37
2018-02-12T18:33:14.232Z,64.99
2018-02-12T18:35:45.314Z,65.63
2018-02-12T18:38:16.434Z,65.10
2018-02-12T18:40:48.252Z,65.07
2018-02-12T18:43:19.290Z,64.95
2018-02-12T18:45:50.387Z,65.20
2018-02-12T18:48:21.722Z,65.17
2018-02-12T18:50:52.813Z,65.49
2018-02-12T18:53:23.885Z,65.35
2018-02-12T18:55:55.043Z,66.03
2018-02-12T18:58:26.102Z,65.72
2018-02-12T19:00:57.395Z,66.24
2018-02-12T19:03:28.465Z,66.22
2018-02-12T19:05:59.547Z,65.72
2018-02-12T19:08:30.661Z,65.67
2018-02-12T19:11:01.956Z,65.43
2018-02-12T19:13:33.041Z,65.22
2018-02-12T19:16:04.124Z,65.29
2018-02-12T19:18:35.178Z,65.15
2018-02-12T19:21:06.243Z,64.93
2018-02-12T19:23:37.357Z,64.85
2018-02-12T19:26:08.403Z,65.01
2018-02-12T19:28:39.505Z,64.97
2018-02-12T19:31:10.549Z,64.83
2018-02-12T19:33:41.668Z,64.67
2018-02-12T19:36:12.796Z,65.05
2018-02-12T19:38:43.949Z,64.99
2018-02-12T19:41:15.759Z,64.86
2018-02-12T19:43:46.834Z,64.78
2018-02-12T19:46:17.892Z,64.44
2018-02-12T19:48:48.985Z,64.24
2018-02-12T19:51:20.049Z,64.05
2018-02-12T19:53:51.157Z,63.88
2018-02-12T19:56:22.292Z,63.85
2018-02-12T19:58:53.357Z,63.78
2018-02-12T20:01:24.445Z,63.91
2018-02-12T20:03:55.656Z,64.05
2018-02-12T20:06:26.757Z,64.22
2018-02-12T20:08:57.787Z,64.58
2018-02-12T20:11:28.851Z,65.03
2018-02-12T20:13:59.944Z,65.24
2018-02-12T20:16:31.409Z,65.28
2018-02-12T20:19:02.504Z,65.33
2018-02-12T20:21:33.685Z,64.92
2018-02-12T20:24:04.773Z,64.55
2018-02-12T20:26:35.891Z,64.13
2018-02-12T20:29:06.940Z,63.76
2018-02-12T20:31:38.026Z,63.36
2018-02-12T20:34:09.125Z,63.39
2018-02-12T20:36:40.137Z,63.57
2018-02-12T20:39:16.190Z,63.85
2018-02-12T20:41:47.277Z,64.08
2018-02-12T20:44:18.390Z,64.37
2018-02-12T20:46:49.511Z,64.51
2018-02-12T20:49:20.624Z,64.47
2018-02-12T20:51:52.858Z,64.04
2018-02-12T20:54:23.894Z,63.74
2018-02-12T20:56:54.975Z,63.51
2018-02-12T20:59:26.086Z,63.42
2018-02-12T21:01:57.130Z,63.37
2018-02-12T21:04:28.207Z,63.62
2018-02-12T21:06:59.322Z,63.85
2018-02-12T21:09:30.374Z,63.54
2018-02-12T21:12:01.420Z,63.14
2018-02-12T21:14:32.548Z,62.87
2018-02-12T21:17:03.642Z,62.45
2018-02-12T21:19:34.722Z,62.06
2018-02-12T21:22:05.866Z,61.93
2018-02-12T21:24:36.970Z,61.85
2018-02-12T21:27:08.019Z,61.69
2018-02-12T21:29:39.109Z,61.48
2018-02-12T21:32:10.148Z,61.15
2018-02-12T21:34:41.203Z,61.22
2018-02-12T21:37:12.269Z,61.21
2018-02-12T21:39:43.316Z,61.30
2018-02-12T21:42:14.420Z,61.38
2018-02-12T21:44:45.463Z,61.40
2018-02-12T21:47:16.545Z,61.42
2018-02-12T21:49:47.723Z,61.28
2018-02-12T21:52:18.851Z,61.21
2018-02-12T21:54:49.909Z,61.55
2018-02-12T21:57:20.958Z,61.67
2018-02-12T21:59:52.026Z,61.69
2018-02-12T22:02:23.132Z,61.65
2018-02-12T22:04:54.239Z,61.61
2018-02-12T22:07:25.327Z,61.45
2018-02-12T22:09:56.415Z,61.34
2018-02-12T22:12:27.488Z,61.25
2018-02-12T22:14:58.576Z,61.47
2018-02-12T22:17:29.644Z,61.78
2018-02-12T22:20:00.729Z,62.07
2018-02-12T22:22:32.400Z,61.85
2018-02-12T22:25:03.479Z,61.69
2018-02-12T22:27:34.580Z,61.45
2018-02-12T22:30:05.663Z,61.22
2018-02-12T22:32:36.751Z,60.99
2018-02-12T22:35:07.826Z,60.73
2018-02-12T22:37:38.943Z,60.49
2018-02-12T22:40:09.995Z,60.59
2018-02-12T22:42:41.083Z,60.79
2018-02-12T22:45:12.161Z,61.16
2018-02-12T22:47:43.247Z,61.51
2018-02-12T22:50:14.330Z,61.76
2018-02-12T22:52:45.382Z,61.66
2018-02-12T22:55:16.490Z,61.69
2018-02-12T22:57:47.588Z,61.59
2018-02-12T23:00:18.664Z,61.33
2018-02-12T23:02:49.764Z,61.24
2018-02-12T23:05:20.854Z,61.20
2018-02-12T23:07:51.890Z,61.09
2018-02-12T23:10:22.968Z,60.99
2018-02-12T23:12:54.024Z,60.80
2018-02-12T23:15:31.237Z,60.67
2018-02-12T23:18:02.332Z,60.42
2018-02-12T23:20:33.420Z,60.48
2018-02-12T23:23:04.558Z,60.61
2018-02-12T23:25:35.602Z,60.77
2018-02-12T23:28:06.669Z,60.99
2018-02-12T23:30:37.751Z,61.07
2018-02-12T23:33:08.833Z,61.17
2018-02-12T23:35:39.841Z,61.22
2018-02-12T23:38:10.938Z,61.41
2018-02-12T23:40:42.002Z,61.65
2018-02-12T23:43:13.095Z,62.02
2018-02-12T23:45:45.085Z,62.30
2018-02-12T23:48:16.216Z,62.52
2018-02-12T23:50:47.285Z,62.35
2018-02-12T23:53:18.301Z,62.29
2018-02-12T23:55:49.376Z,62.12
2018-02-12T23:58:20.445Z,62.25
